sensor_id;sensor_type;location;lat;lon;timestamp;temperature;humidity
48806;DHT22;34625;47.176;27.548;2023-06-26T00:01:27;28.10;55.70
48806;DHT22;34625;47.176;27.548;2023-06-26T00:04:00;28.00;55.80
48806;DHT22;34625;47.176;27.548;2023-06-26T00:06:27;28.10;55.80
48806;DHT22;34625;47.176;27.548;2023-06-26T00:08:53;28.10;55.80
48806;DHT22;34625;47.176;27.548;2023-06-26T00:11:20;28.20;55.80
48806;DHT22;34625;47.176;27.548;2023-06-26T00:13:47;28.10;55.90
48806;DHT22;34625;47.176;27.548;2023-06-26T00:16:13;28.20;55.90
48806;DHT22;34625;47.176;27.548;2023-06-26T00:18:39;28.20;55.80
48806;DHT22;34625;47.176;27.548;2023-06-26T00:21:05;28.00;55.80
48806;DHT22;34625;47.176;27.548;2023-06-26T00:23:31;28.20;55.90
48806;DHT22;34625;47.176;27.548;2023-06-26T00:25:58;28.30;55.90
48806;DHT22;34625;47.176;27.548;2023-06-26T00:28:24;28.20;56.00
48806;DHT22;34625;47.176;27.548;2023-06-26T00:30:50;28.20;56.00
48806;DHT22;34625;47.176;27.548;2023-06-26T00:33:16;28.30;56.00
48806;DHT22;34625;47.176;27.548;2023-06-26T00:35:42;28.20;56.10
48806;DHT22;34625;47.176;27.548;2023-06-26T00:38:10;28.20;56.10
48806;DHT22;34625;47.176;27.548;2023-06-26T00:40:37;28.30;56.20
48806;DHT22;34625;47.176;27.548;2023-06-26T00:43:03;28.30;56.20
48806;DHT22;34625;47.176;27.548;2023-06-26T00:45:29;28.30;56.20
48806;DHT22;34625;47.176;27.548;2023-06-26T00:47:55;28.40;56.20
48806;DHT22;34625;47.176;27.548;2023-06-26T00:50:21;28.30;56.30
48806;DHT22;34625;47.176;27.548;2023-06-26T00:52:47;28.40;56.30
48806;DHT22;34625;47.176;27.548;2023-06-26T00:55:13;28.40;56.30
48806;DHT22;34625;47.176;27.548;2023-06-26T00:57:39;28.40;56.30
48806;DHT22;34625;47.176;27.548;2023-06-26T01:00:06;28.30;56.30
48806;DHT22;34625;47.176;27.548;2023-06-26T01:02:32;28.30;56.40
48806;DHT22;34625;47.176;27.548;2023-06-26T01:05:02;28.50;56.40
48806;DHT22;34625;47.176;27.548;2023-06-26T01:07:35;28.30;56.40
48806;DHT22;34625;47.176;27.548;2023-06-26T01:10:04;28.20;56.40
48806;DHT22;34625;47.176;27.548;2023-06-26T01:12:32;28.40;56.50
48806;DHT22;34625;47.176;27.548;2023-06-26T01:14:59;28.40;56.50
48806;DHT22;34625;47.176;27.548;2023-06-26T01:17:27;28.40;56.50
48806;DHT22;34625;47.176;27.548;2023-06-26T01:19:59;28.40;56.50
48806;DHT22;34625;47.176;27.548;2023-06-26T01:25:22;28.40;56.50
48806;DHT22;34625;47.176;27.548;2023-06-26T01:27:52;28.40;56.50
48806;DHT22;34625;47.176;27.548;2023-06-26T01:30:20;28.40;56.50
48806;DHT22;34625;47.176;27.548;2023-06-26T01:32:47;28.40;56.50
48806;DHT22;34625;47.176;27.548;2023-06-26T01:35:15;28.50;56.50
48806;DHT22;34625;47.176;27.548;2023-06-26T01:37:41;28.20;56.60
48806;DHT22;34625;47.176;27.548;2023-06-26T01:40:08;28.40;56.60
48806;DHT22;34625;47.176;27.548;2023-06-26T01:42:35;28.40;56.60
48806;DHT22;34625;47.176;27.548;2023-06-26T01:45:12;28.40;56.60
48806;DHT22;34625;47.176;27.548;2023-06-26T01:47:44;28.30;56.60
48806;DHT22;34625;47.176;27.548;2023-06-26T01:50:18;28.40;56.60
48806;DHT22;34625;47.176;27.548;2023-06-26T01:53:02;28.30;56.60
48806;DHT22;34625;47.176;27.548;2023-06-26T01:55:55;28.30;56.60
48806;DHT22;34625;47.176;27.548;2023-06-26T01:58:26;28.30;56.60
48806;DHT22;34625;47.176;27.548;2023-06-26T02:00:53;28.30;56.60
48806;DHT22;34625;47.176;27.548;2023-06-26T02:03:19;28.40;56.60
48806;DHT22;34625;47.176;27.548;2023-06-26T02:05:46;28.30;56.70
48806;DHT22;34625;47.176;27.548;2023-06-26T02:08:14;28.50;56.60
48806;DHT22;34625;47.176;27.548;2023-06-26T02:10:47;28.50;56.60
48806;DHT22;34625;47.176;27.548;2023-06-26T02:13:16;28.40;56.70
48806;DHT22;34625;47.176;27.548;2023-06-26T02:15:42;28.40;56.70
48806;DHT22;34625;47.176;27.548;2023-06-26T02:18:08;28.40;56.70
48806;DHT22;34625;47.176;27.548;2023-06-26T02:20:34;28.30;56.70
48806;DHT22;34625;47.176;27.548;2023-06-26T02:23:00;28.40;56.70
48806;DHT22;34625;47.176;27.548;2023-06-26T02:25:26;28.40;56.70
48806;DHT22;34625;47.176;27.548;2023-06-26T02:27:52;28.30;56.70
48806;DHT22;34625;47.176;27.548;2023-06-26T02:30:19;28.30;56.80
48806;DHT22;34625;47.176;27.548;2023-06-26T02:32:45;28.30;56.80
48806;DHT22;34625;47.176;27.548;2023-06-26T02:35:11;28.30;56.80
48806;DHT22;34625;47.176;27.548;2023-06-26T02:37:41;28.50;56.80
48806;DHT22;34625;47.176;27.548;2023-06-26T02:40:08;28.30;56.80
48806;DHT22;34625;47.176;27.548;2023-06-26T02:42:37;28.30;56.90
48806;DHT22;34625;47.176;27.548;2023-06-26T02:45:04;28.30;57.00
48806;DHT22;34625;47.176;27.548;2023-06-26T02:47:31;28.30;56.90
48806;DHT22;34625;47.176;27.548;2023-06-26T02:49:57;28.30;56.90
48806;DHT22;34625;47.176;27.548;2023-06-26T02:52:24;28.30;56.90
48806;DHT22;34625;47.176;27.548;2023-06-26T02:54:50;28.30;56.90
48806;DHT22;34625;47.176;27.548;2023-06-26T02:57:16;28.30;56.90
48806;DHT22;34625;47.176;27.548;2023-06-26T02:59:43;28.30;56.90
48806;DHT22;34625;47.176;27.548;2023-06-26T03:02:09;28.20;56.90
48806;DHT22;34625;47.176;27.548;2023-06-26T03:04:40;28.40;56.90
48806;DHT22;34625;47.176;27.548;2023-06-26T03:07:11;28.30;56.90
48806;DHT22;34625;47.176;27.548;2023-06-26T03:09:39;28.30;56.90
48806;DHT22;34625;47.176;27.548;2023-06-26T03:12:05;28.50;57.00
48806;DHT22;34625;47.176;27.548;2023-06-26T03:14:33;28.40;57.00
48806;DHT22;34625;47.176;27.548;2023-06-26T03:16:59;28.30;56.90
48806;DHT22;34625;47.176;27.548;2023-06-26T03:19:29;28.50;56.90
48806;DHT22;34625;47.176;27.548;2023-06-26T03:22:13;28.30;56.90
48806;DHT22;34625;47.176;27.548;2023-06-26T03:24:39;28.40;57.00
48806;DHT22;34625;47.176;27.548;2023-06-26T03:27:06;28.30;57.00
48806;DHT22;34625;47.176;27.548;2023-06-26T03:29:33;28.30;57.00
48806;DHT22;34625;47.176;27.548;2023-06-26T03:31:59;28.40;56.90
48806;DHT22;34625;47.176;27.548;2023-06-26T03:34:26;28.40;56.90
48806;DHT22;34625;47.176;27.548;2023-06-26T03:36:53;28.30;56.90
48806;DHT22;34625;47.176;27.548;2023-06-26T03:39:19;28.20;56.90
48806;DHT22;34625;47.176;27.548;2023-06-26T03:41:46;28.20;56.90
48806;DHT22;34625;47.176;27.548;2023-06-26T03:44:12;28.30;57.00
48806;DHT22;34625;47.176;27.548;2023-06-26T03:46:45;28.30;56.90
48806;DHT22;34625;47.176;27.548;2023-06-26T03:49:11;28.30;56.90
48806;DHT22;34625;47.176;27.548;2023-06-26T03:51:37;28.30;56.20
48806;DHT22;34625;47.176;27.548;2023-06-26T03:54:03;28.20;55.10
48806;DHT22;34625;47.176;27.548;2023-06-26T03:56:29;28.20;54.40
48806;DHT22;34625;47.176;27.548;2023-06-26T03:58:55;28.10;51.80
48806;DHT22;34625;47.176;27.548;2023-06-26T04:01:21;28.10;50.80
48806;DHT22;34625;47.176;27.548;2023-06-26T04:03:48;28.00;51.60
48806;DHT22;34625;47.176;27.548;2023-06-26T04:06:14;28.00;50.20
48806;DHT22;34625;47.176;27.548;2023-06-26T04:08:40;27.90;48.90
48806;DHT22;34625;47.176;27.548;2023-06-26T04:11:06;27.80;49.50
48806;DHT22;34625;47.176;27.548;2023-06-26T04:13:32;27.90;51.60
48806;DHT22;34625;47.176;27.548;2023-06-26T04:15:58;28.20;55.80
48806;DHT22;34625;47.176;27.548;2023-06-26T04:18:24;28.60;55.00
48806;DHT22;34625;47.176;27.548;2023-06-26T04:21:08;28.80;58.10
48806;DHT22;34625;47.176;27.548;2023-06-26T04:23:35;28.70;53.10
48806;DHT22;34625;47.176;27.548;2023-06-26T04:26:01;28.60;51.60
48806;DHT22;34625;47.176;27.548;2023-06-26T04:28:28;28.40;51.70
48806;DHT22;34625;47.176;27.548;2023-06-26T04:30:54;28.30;51.70
48806;DHT22;34625;47.176;27.548;2023-06-26T04:33:20;28.20;51.70
48806;DHT22;34625;47.176;27.548;2023-06-26T04:35:47;28.20;52.20
48806;DHT22;34625;47.176;27.548;2023-06-26T04:38:15;28.30;53.00
48806;DHT22;34625;47.176;27.548;2023-06-26T04:40:41;28.30;53.20
48806;DHT22;34625;47.176;27.548;2023-06-26T04:43:07;28.30;53.60
48806;DHT22;34625;47.176;27.548;2023-06-26T04:45:33;28.30;53.50
48806;DHT22;34625;47.176;27.548;2023-06-26T04:47:59;28.30;53.50
48806;DHT22;34625;47.176;27.548;2023-06-26T04:50:25;28.30;53.70
48806;DHT22;34625;47.176;27.548;2023-06-26T04:52:55;28.30;54.00
48806;DHT22;34625;47.176;27.548;2023-06-26T04:55:21;28.40;54.00
48806;DHT22;34625;47.176;27.548;2023-06-26T04:57:47;28.40;54.20
48806;DHT22;34625;47.176;27.548;2023-06-26T05:00:14;28.30;54.30
48806;DHT22;34625;47.176;27.548;2023-06-26T05:02:41;28.30;54.00
48806;DHT22;34625;47.176;27.548;2023-06-26T05:05:07;28.30;51.80
48806;DHT22;34625;47.176;27.548;2023-06-26T05:07:33;28.20;50.20
48806;DHT22;34625;47.176;27.548;2023-06-26T05:09:59;28.10;49.50
48806;DHT22;34625;47.176;27.548;2023-06-26T05:12:25;28.10;51.30
48806;DHT22;34625;47.176;27.548;2023-06-26T05:14:51;28.10;51.30
48806;DHT22;34625;47.176;27.548;2023-06-26T05:17:17;28.10;51.30
48806;DHT22;34625;47.176;27.548;2023-06-26T05:19:43;28.10;52.10
48806;DHT22;34625;47.176;27.548;2023-06-26T05:22:11;28.40;53.20
48806;DHT22;34625;47.176;27.548;2023-06-26T05:24:39;28.20;54.10
48806;DHT22;34625;47.176;27.548;2023-06-26T05:27:06;28.40;55.80
48806;DHT22;34625;47.176;27.548;2023-06-26T05:29:33;28.20;53.60
48806;DHT22;34625;47.176;27.548;2023-06-26T05:31:59;28.40;53.30
48806;DHT22;34625;47.176;27.548;2023-06-26T05:34:26;28.40;53.60
48806;DHT22;34625;47.176;27.548;2023-06-26T05:36:58;28.40;53.10
48806;DHT22;34625;47.176;27.548;2023-06-26T05:39:25;28.30;52.80
48806;DHT22;34625;47.176;27.548;2023-06-26T05:41:51;28.30;52.80
48806;DHT22;34625;47.176;27.548;2023-06-26T05:44:17;28.20;54.70
48806;DHT22;34625;47.176;27.548;2023-06-26T05:46:45;28.20;54.60
48806;DHT22;34625;47.176;27.548;2023-06-26T05:49:11;28.20;53.60
48806;DHT22;34625;47.176;27.548;2023-06-26T05:51:38;28.10;53.70
48806;DHT22;34625;47.176;27.548;2023-06-26T05:54:04;28.10;54.10
48806;DHT22;34625;47.176;27.548;2023-06-26T05:56:31;28.10;53.60
48806;DHT22;34625;47.176;27.548;2023-06-26T05:58:58;28.10;53.00
48806;DHT22;34625;47.176;27.548;2023-06-26T06:01:24;28.20;53.60
48806;DHT22;34625;47.176;27.548;2023-06-26T06:03:50;28.00;53.60
48806;DHT22;34625;47.176;27.548;2023-06-26T06:06:16;28.10;53.70
48806;DHT22;34625;47.176;27.548;2023-06-26T06:08:42;28.20;54.00
48806;DHT22;34625;47.176;27.548;2023-06-26T06:11:08;28.20;54.00
48806;DHT22;34625;47.176;27.548;2023-06-26T06:13:34;28.30;54.10
48806;DHT22;34625;47.176;27.548;2023-06-26T06:16:00;28.20;54.20
48806;DHT22;34625;47.176;27.548;2023-06-26T06:18:26;28.20;54.20
48806;DHT22;34625;47.176;27.548;2023-06-26T06:20:52;28.30;54.20
48806;DHT22;34625;47.176;27.548;2023-06-26T06:23:18;28.30;52.70
48806;DHT22;34625;47.176;27.548;2023-06-26T06:25:44;28.20;52.50
48806;DHT22;34625;47.176;27.548;2023-06-26T06:28:10;28.30;52.30
48806;DHT22;34625;47.176;27.548;2023-06-26T06:30:36;28.20;54.00
48806;DHT22;34625;47.176;27.548;2023-06-26T06:33:02;28.30;53.60
48806;DHT22;34625;47.176;27.548;2023-06-26T06:35:28;28.20;53.40
48806;DHT22;34625;47.176;27.548;2023-06-26T06:37:54;28.20;53.90
48806;DHT22;34625;47.176;27.548;2023-06-26T06:40:20;28.30;53.60
48806;DHT22;34625;47.176;27.548;2023-06-26T06:42:48;28.30;53.60
48806;DHT22;34625;47.176;27.548;2023-06-26T06:45:14;28.40;53.60
48806;DHT22;34625;47.176;27.548;2023-06-26T06:47:40;28.40;53.60
48806;DHT22;34625;47.176;27.548;2023-06-26T06:50:06;28.40;53.60
48806;DHT22;34625;47.176;27.548;2023-06-26T06:52:38;28.40;53.60
48806;DHT22;34625;47.176;27.548;2023-06-26T06:55:06;28.30;53.60
48806;DHT22;34625;47.176;27.548;2023-06-26T06:57:39;28.40;53.90
48806;DHT22;34625;47.176;27.548;2023-06-26T07:00:10;28.30;53.70
48806;DHT22;34625;47.176;27.548;2023-06-26T07:02:38;28.40;53.90
48806;DHT22;34625;47.176;27.548;2023-06-26T07:05:05;28.30;53.70
48806;DHT22;34625;47.176;27.548;2023-06-26T07:07:32;28.30;53.60
48806;DHT22;34625;47.176;27.548;2023-06-26T07:10:02;28.20;53.40
48806;DHT22;34625;47.176;27.548;2023-06-26T07:12:28;28.30;53.40
48806;DHT22;34625;47.176;27.548;2023-06-26T07:14:56;28.20;53.30
48806;DHT22;34625;47.176;27.548;2023-06-26T07:17:22;28.20;53.40
48806;DHT22;34625;47.176;27.548;2023-06-26T07:19:49;28.30;53.40
48806;DHT22;34625;47.176;27.548;2023-06-26T07:22:15;28.20;53.20
48806;DHT22;34625;47.176;27.548;2023-06-26T07:24:41;28.30;53.10
48806;DHT22;34625;47.176;27.548;2023-06-26T07:27:08;28.30;52.80
48806;DHT22;34625;47.176;27.548;2023-06-26T07:29:34;28.30;52.60
48806;DHT22;34625;47.176;27.548;2023-06-26T07:32:00;28.20;52.00
48806;DHT22;34625;47.176;27.548;2023-06-26T07:34:26;28.20;52.30
48806;DHT22;34625;47.176;27.548;2023-06-26T07:36:51;28.30;52.50
48806;DHT22;34625;47.176;27.548;2023-06-26T07:39:17;28.40;52.40
48806;DHT22;34625;47.176;27.548;2023-06-26T07:41:43;28.40;52.30
48806;DHT22;34625;47.176;27.548;2023-06-26T07:44:10;28.30;52.20
48806;DHT22;34625;47.176;27.548;2023-06-26T07:46:36;28.40;52.10
48806;DHT22;34625;47.176;27.548;2023-06-26T07:49:02;28.30;52.20
48806;DHT22;34625;47.176;27.548;2023-06-26T07:51:28;28.30;52.50
48806;DHT22;34625;47.176;27.548;2023-06-26T07:53:54;28.40;52.50
48806;DHT22;34625;47.176;27.548;2023-06-26T07:56:20;28.30;52.30
48806;DHT22;34625;47.176;27.548;2023-06-26T07:58:46;28.50;52.30
48806;DHT22;34625;47.176;27.548;2023-06-26T08:01:12;28.30;52.40
48806;DHT22;34625;47.176;27.548;2023-06-26T08:03:37;28.40;52.60
48806;DHT22;34625;47.176;27.548;2023-06-26T08:06:03;28.40;53.10
48806;DHT22;34625;47.176;27.548;2023-06-26T08:08:30;28.30;53.60
48806;DHT22;34625;47.176;27.548;2023-06-26T08:10:56;28.40;53.60
48806;DHT22;34625;47.176;27.548;2023-06-26T08:13:22;28.50;53.50
48806;DHT22;34625;47.176;27.548;2023-06-26T08:15:47;28.30;53.00
48806;DHT22;34625;47.176;27.548;2023-06-26T08:18:13;28.40;52.30
48806;DHT22;34625;47.176;27.548;2023-06-26T08:20:39;28.20;52.50
48806;DHT22;34625;47.176;27.548;2023-06-26T08:23:05;28.30;52.70
48806;DHT22;34625;47.176;27.548;2023-06-26T08:25:32;28.20;53.00
48806;DHT22;34625;47.176;27.548;2023-06-26T08:27:58;28.30;53.30
48806;DHT22;34625;47.176;27.548;2023-06-26T08:30:25;28.20;53.50
48806;DHT22;34625;47.176;27.548;2023-06-26T08:32:56;28.20;53.80
48806;DHT22;34625;47.176;27.548;2023-06-26T08:35:22;28.20;53.60
48806;DHT22;34625;47.176;27.548;2023-06-26T08:37:49;28.20;55.10
48806;DHT22;34625;47.176;27.548;2023-06-26T08:40:17;28.10;55.30
48806;DHT22;34625;47.176;27.548;2023-06-26T08:42:44;28.10;54.50
48806;DHT22;34625;47.176;27.548;2023-06-26T08:45:11;28.20;54.30
48806;DHT22;34625;47.176;27.548;2023-06-26T08:47:38;28.10;54.30
48806;DHT22;34625;47.176;27.548;2023-06-26T08:52:59;28.20;54.10
48806;DHT22;34625;47.176;27.548;2023-06-26T08:55:32;28.20;54.20
48806;DHT22;34625;47.176;27.548;2023-06-26T08:57:59;28.20;54.20
48806;DHT22;34625;47.176;27.548;2023-06-26T09:00:25;28.10;53.60
48806;DHT22;34625;47.176;27.548;2023-06-26T09:02:51;28.30;55.50
48806;DHT22;34625;47.176;27.548;2023-06-26T09:05:18;28.50;56.60
48806;DHT22;34625;47.176;27.548;2023-06-26T09:07:44;28.60;56.60
48806;DHT22;34625;47.176;27.548;2023-06-26T09:10:11;28.80;57.40
48806;DHT22;34625;47.176;27.548;2023-06-26T09:12:37;29.20;59.90
48806;DHT22;34625;47.176;27.548;2023-06-26T09:15:07;29.70;63.00
48806;DHT22;34625;47.176;27.548;2023-06-26T09:17:38;29.60;54.80
48806;DHT22;34625;47.176;27.548;2023-06-26T09:20:06;29.30;52.90
48806;DHT22;34625;47.176;27.548;2023-06-26T09:22:36;29.20;53.30
48806;DHT22;34625;47.176;27.548;2023-06-26T09:25:05;29.10;53.40
48806;DHT22;34625;47.176;27.548;2023-06-26T09:27:31;29.00;54.20
48806;DHT22;34625;47.176;27.548;2023-06-26T09:29:57;29.00;54.20
48806;DHT22;34625;47.176;27.548;2023-06-26T09:32:24;29.00;54.10
48806;DHT22;34625;47.176;27.548;2023-06-26T09:34:52;29.10;54.20
48806;DHT22;34625;47.176;27.548;2023-06-26T09:37:19;29.00;54.00
48806;DHT22;34625;47.176;27.548;2023-06-26T09:39:45;29.00;52.90
48806;DHT22;34625;47.176;27.548;2023-06-26T09:42:13;29.00;52.10
48806;DHT22;34625;47.176;27.548;2023-06-26T09:44:49;29.00;51.90
48806;DHT22;34625;47.176;27.548;2023-06-26T09:47:20;28.90;50.90
48806;DHT22;34625;47.176;27.548;2023-06-26T09:49:48;28.90;50.50
48806;DHT22;34625;47.176;27.548;2023-06-26T09:52:15;28.90;50.00
48806;DHT22;34625;47.176;27.548;2023-06-26T09:54:45;28.80;50.20
48806;DHT22;34625;47.176;27.548;2023-06-26T09:57:18;28.90;50.50
48806;DHT22;34625;47.176;27.548;2023-06-26T09:59:45;28.90;51.00
48806;DHT22;34625;47.176;27.548;2023-06-26T10:02:11;29.00;52.00
48806;DHT22;34625;47.176;27.548;2023-06-26T10:04:38;28.80;51.40
48806;DHT22;34625;47.176;27.548;2023-06-26T10:07:06;28.80;51.70
48806;DHT22;34625;47.176;27.548;2023-06-26T10:09:45;28.90;51.60
48806;DHT22;34625;47.176;27.548;2023-06-26T10:12:17;28.90;51.60
48806;DHT22;34625;47.176;27.548;2023-06-26T10:14:44;28.80;51.20
48806;DHT22;34625;47.176;27.548;2023-06-26T10:17:11;28.70;51.50
48806;DHT22;34625;47.176;27.548;2023-06-26T10:19:43;28.60;51.60
48806;DHT22;34625;47.176;27.548;2023-06-26T10:22:12;28.80;51.50
48806;DHT22;34625;47.176;27.548;2023-06-26T10:24:40;28.80;51.40
48806;DHT22;34625;47.176;27.548;2023-06-26T10:27:14;28.70;51.70
48806;DHT22;34625;47.176;27.548;2023-06-26T10:29:53;28.60;52.30
48806;DHT22;34625;47.176;27.548;2023-06-26T10:32:21;28.70;52.90
48806;DHT22;34625;47.176;27.548;2023-06-26T10:34:48;28.70;55.60
48806;DHT22;34625;47.176;27.548;2023-06-26T10:37:14;28.70;54.20
48806;DHT22;34625;47.176;27.548;2023-06-26T10:39:49;28.70;53.60
48806;DHT22;34625;47.176;27.548;2023-06-26T10:42:35;28.70;53.50
48806;DHT22;34625;47.176;27.548;2023-06-26T10:45:14;28.80;53.20
48806;DHT22;34625;47.176;27.548;2023-06-26T10:47:44;28.70;52.70
48806;DHT22;34625;47.176;27.548;2023-06-26T10:50:22;28.80;55.90
48806;DHT22;34625;47.176;27.548;2023-06-26T10:55:54;29.20;60.20
48806;DHT22;34625;47.176;27.548;2023-06-26T11:03:42;29.30;55.90
48806;DHT22;34625;47.176;27.548;2023-06-26T11:06:10;29.10;55.10
48806;DHT22;34625;47.176;27.548;2023-06-26T11:11:14;29.10;54.50
48806;DHT22;34625;47.176;27.548;2023-06-26T11:13:41;29.10;54.40
48806;DHT22;34625;47.176;27.548;2023-06-26T11:16:08;29.10;54.30
48806;DHT22;34625;47.176;27.548;2023-06-26T11:18:34;29.00;54.20
48806;DHT22;34625;47.176;27.548;2023-06-26T11:21:10;29.20;54.10
48806;DHT22;34625;47.176;27.548;2023-06-26T11:23:40;29.20;54.10
48806;DHT22;34625;47.176;27.548;2023-06-26T11:26:17;29.00;54.10
48806;DHT22;34625;47.176;27.548;2023-06-26T11:28:50;29.00;54.00
48806;DHT22;34625;47.176;27.548;2023-06-26T11:31:29;28.90;53.50
48806;DHT22;34625;47.176;27.548;2023-06-26T11:33:56;29.20;56.80
48806;DHT22;34625;47.176;27.548;2023-06-26T11:36:24;29.20;55.60
48806;DHT22;34625;47.176;27.548;2023-06-26T11:39:01;29.10;54.70
48806;DHT22;34625;47.176;27.548;2023-06-26T11:41:30;29.00;54.50
48806;DHT22;34625;47.176;27.548;2023-06-26T11:44:04;29.00;55.10
48806;DHT22;34625;47.176;27.548;2023-06-26T11:46:30;28.90;54.50
48806;DHT22;34625;47.176;27.548;2023-06-26T11:48:57;28.90;54.30
48806;DHT22;34625;47.176;27.548;2023-06-26T11:51:23;29.00;55.40
48806;DHT22;34625;47.176;27.548;2023-06-26T11:53:49;28.90;55.40
48806;DHT22;34625;47.176;27.548;2023-06-26T11:56:16;28.80;55.70
48806;DHT22;34625;47.176;27.548;2023-06-26T12:01:42;28.70;55.80
48806;DHT22;34625;47.176;27.548;2023-06-26T12:04:12;28.70;56.00
48806;DHT22;34625;47.176;27.548;2023-06-26T12:06:39;28.70;56.50
48806;DHT22;34625;47.176;27.548;2023-06-26T12:09:09;28.70;56.50
48806;DHT22;34625;47.176;27.548;2023-06-26T12:11:42;28.60;56.50
48806;DHT22;34625;47.176;27.548;2023-06-26T12:14:09;28.60;56.30
48806;DHT22;34625;47.176;27.548;2023-06-26T12:16:36;28.60;56.30
48806;DHT22;34625;47.176;27.548;2023-06-26T12:19:05;28.60;56.40
48806;DHT22;34625;47.176;27.548;2023-06-26T12:24:04;28.60;56.80
48806;DHT22;34625;47.176;27.548;2023-06-26T12:26:31;28.60;56.70
48806;DHT22;34625;47.176;27.548;2023-06-26T12:29:08;28.60;56.70
48806;DHT22;34625;47.176;27.548;2023-06-26T12:31:34;28.50;56.60
48806;DHT22;34625;47.176;27.548;2023-06-26T12:34:02;28.50;56.40
48806;DHT22;34625;47.176;27.548;2023-06-26T12:36:28;28.50;55.80
48806;DHT22;34625;47.176;27.548;2023-06-26T12:38:54;28.50;56.20
48806;DHT22;34625;47.176;27.548;2023-06-26T12:41:24;28.60;57.50
48806;DHT22;34625;47.176;27.548;2023-06-26T12:43:56;28.60;57.50
48806;DHT22;34625;47.176;27.548;2023-06-26T12:46:34;28.50;57.20
48806;DHT22;34625;47.176;27.548;2023-06-26T12:49:01;28.50;57.00
48806;DHT22;34625;47.176;27.548;2023-06-26T12:51:27;28.50;57.00
48806;DHT22;34625;47.176;27.548;2023-06-26T12:53:53;28.70;57.00
48806;DHT22;34625;47.176;27.548;2023-06-26T12:56:19;28.60;56.90
48806;DHT22;34625;47.176;27.548;2023-06-26T12:58:45;28.50;57.10
48806;DHT22;34625;47.176;27.548;2023-06-26T13:01:11;28.70;57.30
48806;DHT22;34625;47.176;27.548;2023-06-26T13:03:40;28.80;57.30
48806;DHT22;34625;47.176;27.548;2023-06-26T13:06:07;28.70;57.40
48806;DHT22;34625;47.176;27.548;2023-06-26T13:08:36;28.70;57.40
48806;DHT22;34625;47.176;27.548;2023-06-26T13:11:02;28.80;57.40
48806;DHT22;34625;47.176;27.548;2023-06-26T13:13:29;28.70;57.30
48806;DHT22;34625;47.176;27.548;2023-06-26T13:15:54;28.70;57.20
48806;DHT22;34625;47.176;27.548;2023-06-26T13:18:20;28.80;57.20
48806;DHT22;34625;47.176;27.548;2023-06-26T13:20:46;28.80;57.10
48806;DHT22;34625;47.176;27.548;2023-06-26T13:23:12;28.70;57.00
48806;DHT22;34625;47.176;27.548;2023-06-26T13:25:38;28.70;56.80
48806;DHT22;34625;47.176;27.548;2023-06-26T13:28:04;28.70;56.50
48806;DHT22;34625;47.176;27.548;2023-06-26T13:30:30;28.70;56.40
48806;DHT22;34625;47.176;27.548;2023-06-26T13:32:56;28.90;56.20
48806;DHT22;34625;47.176;27.548;2023-06-26T13:35:22;28.70;56.10
48806;DHT22;34625;47.176;27.548;2023-06-26T13:37:49;28.80;55.90
48806;DHT22;34625;47.176;27.548;2023-06-26T13:40:15;28.70;55.70
48806;DHT22;34625;47.176;27.548;2023-06-26T13:42:41;28.80;55.60
48806;DHT22;34625;47.176;27.548;2023-06-26T13:45:08;28.80;55.60
48806;DHT22;34625;47.176;27.548;2023-06-26T13:47:34;28.80;55.60
48806;DHT22;34625;47.176;27.548;2023-06-26T13:50:00;28.90;55.70
48806;DHT22;34625;47.176;27.548;2023-06-26T13:52:26;28.90;55.60
48806;DHT22;34625;47.176;27.548;2023-06-26T13:54:52;28.90;55.60
48806;DHT22;34625;47.176;27.548;2023-06-26T13:57:18;28.80;55.60
48806;DHT22;34625;47.176;27.548;2023-06-26T13:59:48;28.80;55.60
48806;DHT22;34625;47.176;27.548;2023-06-26T14:02:14;28.70;55.60
48806;DHT22;34625;47.176;27.548;2023-06-26T14:04:40;28.80;55.60
48806;DHT22;34625;47.176;27.548;2023-06-26T14:07:06;28.90;55.60
48806;DHT22;34625;47.176;27.548;2023-06-26T14:09:33;29.00;56.10
48806;DHT22;34625;47.176;27.548;2023-06-26T14:11:59;28.80;55.60
48806;DHT22;34625;47.176;27.548;2023-06-26T14:14:25;28.80;55.60
48806;DHT22;34625;47.176;27.548;2023-06-26T14:16:51;28.90;55.60
48806;DHT22;34625;47.176;27.548;2023-06-26T14:19:17;28.90;55.60
48806;DHT22;34625;47.176;27.548;2023-06-26T14:21:45;28.80;55.40
48806;DHT22;34625;47.176;27.548;2023-06-26T14:24:11;28.80;55.40
48806;DHT22;34625;47.176;27.548;2023-06-26T14:26:37;28.80;55.30
48806;DHT22;34625;47.176;27.548;2023-06-26T14:29:04;28.90;55.40
48806;DHT22;34625;47.176;27.548;2023-06-26T14:31:30;28.80;55.60
48806;DHT22;34625;47.176;27.548;2023-06-26T14:33:56;28.70;55.60
48806;DHT22;34625;47.176;27.548;2023-06-26T14:36:25;28.80;55.60
48806;DHT22;34625;47.176;27.548;2023-06-26T14:38:52;28.70;55.60
48806;DHT22;34625;47.176;27.548;2023-06-26T14:41:18;28.70;55.80
48806;DHT22;34625;47.176;27.548;2023-06-26T14:43:44;28.60;55.90
48806;DHT22;34625;47.176;27.548;2023-06-26T14:46:11;28.80;55.90
48806;DHT22;34625;47.176;27.548;2023-06-26T14:48:38;28.70;55.90
48806;DHT22;34625;47.176;27.548;2023-06-26T14:51:04;28.80;55.90
48806;DHT22;34625;47.176;27.548;2023-06-26T14:53:30;28.70;55.90
48806;DHT22;34625;47.176;27.548;2023-06-26T14:55:56;28.70;55.80
48806;DHT22;34625;47.176;27.548;2023-06-26T14:58:22;28.70;55.80
48806;DHT22;34625;47.176;27.548;2023-06-26T15:00:48;28.70;55.90
48806;DHT22;34625;47.176;27.548;2023-06-26T15:03:14;28.70;55.90
48806;DHT22;34625;47.176;27.548;2023-06-26T15:05:40;28.70;56.00
48806;DHT22;34625;47.176;27.548;2023-06-26T15:08:06;28.80;56.00
48806;DHT22;34625;47.176;27.548;2023-06-26T15:10:32;28.80;56.10
48806;DHT22;34625;47.176;27.548;2023-06-26T15:12:58;28.80;57.60
48806;DHT22;34625;47.176;27.548;2023-06-26T15:15:24;28.90;57.40
48806;DHT22;34625;47.176;27.548;2023-06-26T15:17:50;29.10;57.50
48806;DHT22;34625;47.176;27.548;2023-06-26T15:20:16;28.90;59.30
48806;DHT22;34625;47.176;27.548;2023-06-26T15:22:42;29.00;59.30
48806;DHT22;34625;47.176;27.548;2023-06-26T15:25:09;29.00;59.30
48806;DHT22;34625;47.176;27.548;2023-06-26T15:27:34;28.90;58.00
48806;DHT22;34625;47.176;27.548;2023-06-26T15:30:00;29.00;58.40
48806;DHT22;34625;47.176;27.548;2023-06-26T15:32:26;29.00;58.50
48806;DHT22;34625;47.176;27.548;2023-06-26T15:34:52;29.00;58.60
48806;DHT22;34625;47.176;27.548;2023-06-26T15:37:19;29.00;58.50
48806;DHT22;34625;47.176;27.548;2023-06-26T15:39:45;29.10;59.20